createdAt,value
2023-09-06T00:01:54.006Z,13.10
2023-09-06T00:06:00.959Z,13.00
2023-09-06T00:10:06.787Z,13.00
2023-09-06T00:14:10.264Z,13.00
2023-09-06T00:18:13.445Z,12.90
2023-09-06T00:22:23.137Z,12.80
2023-09-06T00:26:27.600Z,12.70
2023-09-06T00:30:32.630Z,12.70
2023-09-06T00:34:38.348Z,12.70
2023-09-06T00:38:42.990Z,12.60
2023-09-06T00:42:48.715Z,12.60
2023-09-06T00:46:57.364Z,12.50
2023-09-06T00:51:05.250Z,12.40
2023-09-06T00:55:14.989Z,12.40
2023-09-06T00:59:23.252Z,12.40
2023-09-06T01:03:26.454Z,12.40
2023-09-06T01:07:36.230Z,12.60
2023-09-06T01:11:44.064Z,12.80
2023-09-06T01:15:48.035Z,13.10
2023-09-06T01:19:55.713Z,13.40
2023-09-06T01:24:03.845Z,13.70
2023-09-06T01:28:07.872Z,14.00
2023-09-06T01:32:12.163Z,14.20
2023-09-06T01:36:15.769Z,14.30
2023-09-06T01:40:23.218Z,14.40
2023-09-06T01:44:28.226Z,14.40
2023-09-06T01:48:32.025Z,14.50
2023-09-06T01:52:38.068Z,14.20
2023-09-06T01:56:48.892Z,13.80
2023-09-06T02:01:00.010Z,13.50
2023-09-06T02:05:03.071Z,13.20
2023-09-06T02:09:07.499Z,12.90
2023-09-06T02:13:20.245Z,12.80
2023-09-06T02:17:23.913Z,12.60
2023-09-06T02:21:27.324Z,12.40
2023-09-06T02:25:34.961Z,12.20
2023-09-06T02:29:39.573Z,12.10
2023-09-06T02:33:46.375Z,12.00
2023-09-06T02:37:52.508Z,12.00
2023-09-06T02:41:56.526Z,11.90
2023-09-06T02:46:04.628Z,11.90
2023-09-06T02:50:15.280Z,11.80
2023-09-06T02:54:19.524Z,11.80
2023-09-06T02:58:26.983Z,11.80
2023-09-06T03:02:35.258Z,11.80
2023-09-06T03:06:39.518Z,11.70
2023-09-06T03:10:44.141Z,11.70
2023-09-06T03:14:52.410Z,11.70
2023-09-06T03:19:00.506Z,11.80
2023-09-06T03:23:10.403Z,11.90
2023-09-06T03:27:17.576Z,12.20
2023-09-06T03:31:21.834Z,12.40
2023-09-06T03:35:31.910Z,12.50
2023-09-06T03:39:42.570Z,12.60
2023-09-06T03:43:46.916Z,12.60
2023-09-06T03:47:50.627Z,12.50
2023-09-06T03:51:57.118Z,12.40
2023-09-06T03:56:03.157Z,12.20
2023-09-06T04:00:21.187Z,12.30
2023-09-06T04:04:25.216Z,12.20
2023-09-06T04:08:34.382Z,12.30
2023-09-06T04:12:37.705Z,12.50
2023-09-06T04:16:49.769Z,12.80
2023-09-06T04:20:55.935Z,12.90
2023-09-06T04:25:02.503Z,13.00
2023-09-06T04:29:06.474Z,13.00
2023-09-06T04:33:11.638Z,13.10
2023-09-06T04:37:19.832Z,13.20
2023-09-06T04:41:25.708Z,13.30
2023-09-06T04:45:30.571Z,13.40
2023-09-06T04:49:36.513Z,13.50
2023-09-06T04:53:41.166Z,13.60
2023-09-06T04:57:46.914Z,13.70
2023-09-06T05:01:49.970Z,13.80
2023-09-06T05:05:53.286Z,13.70
2023-09-06T05:09:58.512Z,13.80
2023-09-06T05:14:04.171Z,13.80
2023-09-06T05:18:12.341Z,13.80
2023-09-06T05:22:15.490Z,13.90
2023-09-06T05:26:21.034Z,13.90
2023-09-06T05:30:25.528Z,13.90
2023-09-06T05:34:31.820Z,14.00
2023-09-06T05:38:35.028Z,14.10
2023-09-06T05:42:39.899Z,14.20
2023-09-06T05:46:47.747Z,14.30
2023-09-06T05:50:50.878Z,14.40
2023-09-06T05:54:55.975Z,14.50
2023-09-06T05:59:01.965Z,14.70
2023-09-06T06:03:08.953Z,14.80
2023-09-06T06:07:12.976Z,15.00
2023-09-06T06:11:19.065Z,15.20
2023-09-06T06:15:24.079Z,15.30
2023-09-06T06:19:28.598Z,15.50
2023-09-06T06:23:32.282Z,15.70
2023-09-06T06:27:35.933Z,15.80
2023-09-06T06:31:39.378Z,16.00
2023-09-06T06:35:45.481Z,16.10
2023-09-06T06:40:00.370Z,16.20
2023-09-06T06:44:03.586Z,16.40
2023-09-06T06:48:07.700Z,16.50
2023-09-06T06:52:12.297Z,16.70
2023-09-06T06:56:18.432Z,16.70
2023-09-06T07:00:23.157Z,16.90
2023-09-06T07:04:26.140Z,17.10
2023-09-06T07:08:30.772Z,17.30
2023-09-06T07:12:37.992Z,17.50
2023-09-06T07:16:41.869Z,17.70
2023-09-06T07:20:48.500Z,18.00
2023-09-06T07:25:00.356Z,18.20
2023-09-06T07:29:08.834Z,18.20
2023-09-06T07:33:12.317Z,18.30
2023-09-06T07:37:18.152Z,18.60
2023-09-06T07:41:23.350Z,18.80
2023-09-06T07:45:27.699Z,19.10
2023-09-06T07:49:31.936Z,19.40
2023-09-06T07:53:35.830Z,19.80
2023-09-06T07:57:40.339Z,20.20
2023-09-06T08:01:45.904Z,20.40
2023-09-06T08:05:49.021Z,20.50
2023-09-06T08:09:53.903Z,20.80
2023-09-06T08:13:58.593Z,21.30
2023-09-06T08:18:02.577Z,22.10
2023-09-06T08:22:07.046Z,22.70
2023-09-06T08:26:15.067Z,23.10
2023-09-06T08:30:26.136Z,23.80
2023-09-06T08:34:29.687Z,24.40
2023-09-06T08:38:34.885Z,24.80
2023-09-06T08:42:45.978Z,25.10
2023-09-06T08:46:57.208Z,25.50
2023-09-06T08:51:05.325Z,25.90
2023-09-06T08:55:12.619Z,26.10
2023-09-06T08:59:18.520Z,26.00
2023-09-06T09:03:23.696Z,26.20
2023-09-06T09:07:28.755Z,26.80
2023-09-06T09:11:44.252Z,27.50
2023-09-06T09:15:49.714Z,28.00
2023-09-06T09:19:56.476Z,27.90
2023-09-06T09:24:01.106Z,27.60
2023-09-06T09:28:07.532Z,27.90
2023-09-06T09:32:13.689Z,28.10
2023-09-06T09:36:22.372Z,27.90
2023-09-06T09:40:46.081Z,28.40
2023-09-06T09:45:05.997Z,28.50
2023-09-06T09:49:15.129Z,28.60
2023-09-06T09:53:24.412Z,28.60
2023-09-06T09:57:32.830Z,29.10
2023-09-06T10:01:36.087Z,29.30
2023-09-06T10:05:40.504Z,29.70
2023-09-06T10:09:45.154Z,29.60
2023-09-06T10:13:55.631Z,29.40
2023-09-06T10:18:05.779Z,29.50
2023-09-06T10:22:12.947Z,29.90
2023-09-06T10:26:28.591Z,30.10
2023-09-06T10:30:45.719Z,30.30
2023-09-06T10:35:09.611Z,30.60
2023-09-06T10:39:15.570Z,30.80
2023-09-06T10:43:24.419Z,30.70
2023-09-06T10:47:28.460Z,30.10
2023-09-06T10:51:33.572Z,29.70
2023-09-06T10:55:52.711Z,29.40
2023-09-06T11:00:00.507Z,28.90
2023-09-06T11:04:15.385Z,28.40
2023-09-06T11:08:31.305Z,28.70
2023-09-06T11:12:36.136Z,28.90
2023-09-06T11:16:51.204Z,29.00
2023-09-06T11:20:54.878Z,29.60
2023-09-06T11:24:58.889Z,29.90
2023-09-06T11:29:05.985Z,30.20
2023-09-06T11:33:12.759Z,30.30
2023-09-06T11:37:18.528Z,30.10
2023-09-06T11:41:22.474Z,30.20
2023-09-06T11:45:27.824Z,30.30
2023-09-06T11:49:36.091Z,30.30
2023-09-06T11:53:47.026Z,30.20
2023-09-06T11:57:53.826Z,29.30
2023-09-06T12:02:00.458Z,28.70
2023-09-06T12:06:10.455Z,28.30
2023-09-06T12:10:23.242Z,28.50
2023-09-06T12:14:30.922Z,28.50
2023-09-06T12:18:36.181Z,28.30
2023-09-06T12:22:45.438Z,28.10
2023-09-06T12:26:50.113Z,28.00
2023-09-06T12:30:56.602Z,28.00
2023-09-06T12:35:00.419Z,28.20
2023-09-06T12:39:07.820Z,28.40
2023-09-06T12:43:10.928Z,28.30
2023-09-06T12:47:21.861Z,28.20
2023-09-06T12:51:24.886Z,28.40
2023-09-06T12:55:32.456Z,28.40
2023-09-06T12:59:35.875Z,28.40
2023-09-06T13:03:39.026Z,28.30
2023-09-06T13:07:42.133Z,28.20
2023-09-06T13:11:48.805Z,28.10
2023-09-06T13:15:51.876Z,28.20
2023-09-06T13:19:56.056Z,28.20
2023-09-06T13:24:00.882Z,28.20
2023-09-06T13:28:09.883Z,28.20
2023-09-06T13:32:16.525Z,28.30
2023-09-06T13:36:20.926Z,28.40
2023-09-06T13:40:25.218Z,28.50
2023-09-06T13:44:34.464Z,28.80
2023-09-06T13:48:38.304Z,29.30
2023-09-06T13:52:48.856Z,29.80
2023-09-06T13:56:52.285Z,30.10
2023-09-06T14:01:04.743Z,30.20
2023-09-06T14:05:11.113Z,30.30
2023-09-06T14:09:14.254Z,30.70
2023-09-06T14:13:17.401Z,31.10
2023-09-06T14:17:22.005Z,31.00
2023-09-06T14:21:28.085Z,31.10
2023-09-06T14:25:31.586Z,31.00
2023-09-06T14:29:34.936Z,31.20
2023-09-06T14:33:39.544Z,31.30
2023-09-06T14:37:42.874Z,31.30
2023-09-06T14:41:49.316Z,31.10
2023-09-06T14:45:52.588Z,31.10
2023-09-06T14:49:59.226Z,31.20
2023-09-06T14:54:02.448Z,31.10
2023-09-06T14:58:08.550Z,30.90
2023-09-06T15:02:13.547Z,30.80
2023-09-06T15:06:25.410Z,30.80
2023-09-06T15:10:33.242Z,30.80
2023-09-06T15:14:37.402Z,30.70
2023-09-06T15:18:46.685Z,30.70
2023-09-06T15:22:52.572Z,30.80
2023-09-06T15:27:01.702Z,30.70
2023-09-06T15:31:06.638Z,30.50
2023-09-06T15:35:10.743Z,30.40
2023-09-06T15:39:18.115Z,30.40
2023-09-06T15:43:24.290Z,30.40
2023-09-06T15:47:27.730Z,30.30
2023-09-06T15:51:32.799Z,30.30
2023-09-06T15:55:39.679Z,30.40
2023-09-06T15:59:42.798Z,30.40
2023-09-06T16:03:45.970Z,30.50
2023-09-06T16:07:49.384Z,30.50
2023-09-06T16:11:57.936Z,30.60
2023-09-06T16:16:01.145Z,30.80
2023-09-06T16:20:05.742Z,30.80
2023-09-06T16:24:09.120Z,30.70
2023-09-06T16:28:15.528Z,30.70
2023-09-06T16:32:18.905Z,30.80
2023-09-06T16:36:23.528Z,30.60
2023-09-06T16:40:27.172Z,30.40
2023-09-06T16:44:36.670Z,29.90
2023-09-06T16:48:43.182Z,29.20
2023-09-06T16:52:46.590Z,28.50
2023-09-06T16:56:55.627Z,27.90
2023-09-06T17:01:01.560Z,27.40
2023-09-06T17:05:14.467Z,27.00
2023-09-06T17:09:17.891Z,26.60
2023-09-06T17:13:20.936Z,26.30
2023-09-06T17:17:25.871Z,26.10
2023-09-06T17:21:29.003Z,25.80
2023-09-06T17:25:32.801Z,25.60
2023-09-06T17:29:38.570Z,25.40
2023-09-06T17:33:50.776Z,25.10
2023-09-06T17:37:55.927Z,24.90
2023-09-06T17:42:01.770Z,24.60
2023-09-06T17:46:16.200Z,24.20
2023-09-06T17:50:21.158Z,23.90
2023-09-06T17:54:29.902Z,23.70
2023-09-06T17:58:33.676Z,23.50
2023-09-06T18:02:41.891Z,23.30
2023-09-06T18:06:46.652Z,23.10
2023-09-06T18:10:53.127Z,23.00
2023-09-06T18:15:01.941Z,22.90
2023-09-06T18:19:10.483Z,22.60
2023-09-06T18:23:18.063Z,22.40
2023-09-06T18:27:21.298Z,22.20
2023-09-06T18:31:27.383Z,22.00
2023-09-06T18:35:30.724Z,21.90
2023-09-06T18:39:39.861Z,21.70
2023-09-06T18:43:44.362Z,21.50
2023-09-06T18:47:50.954Z,21.30
2023-09-06T18:51:57.208Z,21.20
2023-09-06T18:56:07.195Z,21.10
2023-09-06T19:00:21.389Z,21.00
2023-09-06T19:04:24.491Z,20.90
2023-09-06T19:08:27.529Z,20.70
2023-09-06T19:12:35.573Z,20.70
2023-09-06T19:16:38.650Z,20.80
2023-09-06T19:20:45.309Z,20.90
2023-09-06T19:24:51.258Z,21.00
2023-09-06T19:28:58.609Z,21.00
2023-09-06T19:33:03.779Z,21.00
2023-09-06T19:37:06.970Z,21.00
2023-09-06T19:41:10.323Z,21.00
2023-09-06T19:45:15.456Z,21.00
2023-09-06T19:49:21.298Z,21.00
2023-09-06T19:53:24.977Z,21.00
2023-09-06T19:57:28.333Z,20.90
2023-09-06T20:01:32.948Z,20.90
2023-09-06T20:05:37.490Z,20.80
2023-09-06T20:09:46.021Z,20.80
2023-09-06T20:13:54.613Z,20.80
2023-09-06T20:17:59.085Z,20.70
2023-09-06T20:22:03.720Z,20.60
2023-09-06T20:26:08.481Z,20.50
2023-09-06T20:30:14.953Z,20.50
2023-09-06T20:34:21.173Z,20.40
2023-09-06T20:38:25.942Z,20.30
2023-09-06T20:42:33.012Z,20.30
2023-09-06T20:46:37.507Z,20.20
2023-09-06T20:50:42.016Z,20.10
2023-09-06T20:54:47.020Z,20.10
2023-09-06T20:58:50.776Z,20.10
2023-09-06T21:02:55.716Z,20.00
2023-09-06T21:07:00.776Z,20.00
2023-09-06T21:11:04.255Z,20.00
2023-09-06T21:15:09.033Z,20.00
2023-09-06T21:19:12.140Z,20.00
2023-09-06T21:23:19.816Z,20.10
2023-09-06T21:27:23.046Z,20.10
2023-09-06T21:31:29.426Z,20.00
2023-09-06T21:35:33.982Z,20.00
2023-09-06T21:39:38.464Z,20.00
2023-09-06T21:43:44.461Z,19.90
2023-09-06T21:47:49.292Z,19.80
2023-09-06T21:51:54.896Z,19.80
2023-09-06T21:55:59.110Z,19.80
2023-09-06T22:00:01.994Z,19.70
2023-09-06T22:04:05.407Z,19.50
2023-09-06T22:08:11.308Z,19.20
2023-09-06T22:12:17.876Z,18.90
2023-09-06T22:16:20.848Z,18.60
2023-09-06T22:20:24.591Z,18.30
2023-09-06T22:24:29.312Z,18.00
2023-09-06T22:28:34.818Z,17.90
2023-09-06T22:32:39.169Z,17.70
2023-09-06T22:36:42.272Z,17.40
2023-09-06T22:40:46.089Z,17.10
2023-09-06T22:44:50.918Z,16.90
2023-09-06T22:48:58.515Z,16.80
2023-09-06T22:53:02.881Z,16.60
2023-09-06T22:57:06.056Z,16.50
2023-09-06T23:01:14.739Z,16.40
2023-09-06T23:05:19.020Z,16.20
2023-09-06T23:09:23.955Z,16.00
2023-09-06T23:13:35.106Z,15.90
2023-09-06T23:17:41.329Z,15.70
2023-09-06T23:21:44.681Z,15.70
2023-09-06T23:25:51.356Z,15.60
2023-09-06T23:29:59.106Z,15.70
2023-09-06T23:34:10.545Z,15.70
2023-09-06T23:38:17.514Z,15.90
2023-09-06T23:42:23.165Z,16.00
2023-09-06T23:46:27.674Z,16.00
2023-09-06T23:50:34.601Z,15.90
2023-09-06T23:54:47.253Z,15.80
2023-09-06T23:58:51.700Z,15.70
